createdAt,value
2022-12-11T00:00:24.210Z,1013.0
2022-12-11T00:15:24.121Z,1013.0
2022-12-11T00:30:24.165Z,1013.0
2022-12-11T00:45:23.989Z,1013.0
2022-12-11T01:00:24.671Z,1013.0
2022-12-11T01:15:24.142Z,1013.0
2022-12-11T01:30:24.234Z,1013.7
2022-12-11T01:45:26.881Z,1014.0
2022-12-11T02:00:28.496Z,1014.0
2022-12-11T02:15:24.392Z,1014.0
2022-12-11T02:30:24.318Z,1014.0
2022-12-11T02:45:24.435Z,1014.0
2022-12-11T03:00:30.519Z,1014.0
2022-12-11T03:15:33.202Z,1014.0
2022-12-11T03:30:33.337Z,1014.0
2022-12-11T03:45:32.947Z,1014.0
2022-12-11T04:00:36.359Z,1014.0
2022-12-11T04:15:23.921Z,1014.0
2022-12-11T04:30:23.495Z,1014.0
2022-12-11T04:45:23.819Z,1014.0
2022-12-11T05:00:28.155Z,1014.0
2022-12-11T05:15:23.687Z,1014.0
2022-12-11T05:30:23.585Z,1014.0
2022-12-11T05:45:23.848Z,1013.7
2022-12-11T06:00:32.914Z,1013.0
2022-12-11T06:15:24.036Z,1013.0
2022-12-11T06:30:39.215Z,1013.0
2022-12-11T06:45:24.023Z,1013.0
2022-12-11T07:00:25.308Z,1013.0
2022-12-11T07:15:23.406Z,1013.0
2022-12-11T07:30:25.207Z,1013.0
2022-12-11T07:45:24.049Z,1013.7
2022-12-11T08:00:27.304Z,1013.0
2022-12-11T08:15:24.507Z,1013.0
2022-12-11T08:30:23.783Z,1013.3
2022-12-11T08:45:24.355Z,1013.0
2022-12-11T09:00:26.103Z,1013.3
2022-12-11T09:15:23.921Z,1013.0
2022-12-11T09:30:24.053Z,1013.0
2022-12-11T09:45:24.535Z,1013.0
2022-12-11T10:00:24.312Z,1013.0
2022-12-11T10:15:24.476Z,1013.0
2022-12-11T10:30:24.658Z,1013.0
2022-12-11T10:45:24.558Z,1013.0
2022-12-11T11:00:26.155Z,1012.7
2022-12-11T11:15:25.303Z,1012.0
2022-12-11T11:30:24.618Z,1012.0
2022-12-11T11:45:24.207Z,1012.0
2022-12-11T12:00:50.040Z,1012.0
2022-12-11T12:15:23.581Z,1012.0
2022-12-11T12:30:24.232Z,1012.0
2022-12-11T12:45:23.788Z,1012.0
2022-12-11T13:00:44.556Z,1012.0
2022-12-11T13:15:23.898Z,1012.0
2022-12-11T13:30:23.969Z,1011.7
2022-12-11T13:45:24.096Z,1012.0
2022-12-11T14:00:26.241Z,1011.0
2022-12-11T14:15:23.039Z,1012.0
2022-12-11T14:30:23.200Z,1012.0
2022-12-11T14:45:23.437Z,1012.0
2022-12-11T15:00:29.177Z,1012.0
2022-12-11T15:15:23.561Z,1012.0
2022-12-11T15:30:23.460Z,1012.0
2022-12-11T15:45:24.315Z,1012.0
2022-12-11T16:00:25.260Z,1012.0
2022-12-11T16:15:24.342Z,1012.0
2022-12-11T16:30:24.137Z,1012.0
2022-12-11T16:45:23.423Z,1012.0
2022-12-11T17:00:24.913Z,1012.0
2022-12-11T17:15:23.832Z,1012.0
2022-12-11T17:30:23.980Z,1012.0
2022-12-11T17:45:24.243Z,1012.0
2022-12-11T18:00:31.581Z,1012.0
2022-12-11T18:15:24.086Z,1012.0
2022-12-11T18:30:24.257Z,1012.0
2022-12-11T18:45:24.419Z,1012.0
2022-12-11T19:00:28.748Z,1012.0
2022-12-11T19:15:24.626Z,1012.0
2022-12-11T19:30:26.734Z,1012.0
2022-12-11T19:45:24.097Z,1012.0
2022-12-11T20:00:26.709Z,1012.0
2022-12-11T20:15:24.170Z,1012.0
2022-12-11T20:30:29.342Z,1013.0
2022-12-11T20:45:24.477Z,1013.0
2022-12-11T21:00:28.231Z,1013.0
2022-12-11T21:15:24.286Z,1012.5
2022-12-11T21:30:24.286Z,1013.0
2022-12-11T21:45:59.934Z,1013.0
2022-12-11T22:00:38.606Z,1013.0
2022-12-11T22:15:23.337Z,1013.0
2022-12-11T22:30:23.405Z,1013.0
2022-12-11T22:45:23.766Z,1013.0
2022-12-11T23:15:23.780Z,1013.0
2022-12-11T23:30:23.604Z,1013.0
2022-12-11T23:45:23.687Z,1013.0
